Time;durP1;ratioP1;P1;durP2;ratioP2;P2;SDS_P1;SDS_P2;PMS_P1;PMS_P2;Temp;Humidity;BMP_temperature;BMP_pressure;BME280_temperature;BME280_humidity;BME280_pressure;Samples;Min_cycle;Max_cycle;Signal;HPM_P1;HPM_P2
2021/01/31 00:00:32;;;;;;;6.68;5.28;;;5.10;99.90;;;;;;5013247;28;20030;-74
2021/01/31 00:02:59;;;;;;;7.43;5.50;;;5.00;99.90;;;;;;5012517;28;20041;-74
2021/01/31 00:05:25;;;;;;;9.73;6.22;;;4.90;99.90;;;;;;5012701;28;20026;-74
2021/01/31 00:07:53;;;;;;;6.22;5.20;;;4.90;99.90;;;;;;5012244;28;20555;-73
2021/01/31 00:10:23;;;;;;;7.25;5.20;;;4.90;99.90;;;;;;5012611;28;20048;-74
2021/01/31 00:12:49;;;;;;;9.00;5.75;;;4.90;99.90;;;;;;5012456;28;20018;-74
2021/01/31 00:15:19;;;;;;;7.95;5.72;;;5.00;99.90;;;;;;5012503;28;20481;-74
2021/01/31 00:17:45;;;;;;;6.80;5.47;;;5.10;99.90;;;;;;5011259;28;20164;-74
2021/01/31 00:20:12;;;;;;;5.85;4.85;;;5.10;99.90;;;;;;5012644;28;20500;-74
2021/01/31 00:22:38;;;;;;;8.10;5.93;;;5.00;99.90;;;;;;5027676;28;20104;-74
2021/01/31 00:25:05;;;;;;;8.27;6.63;;;4.90;99.90;;;;;;5012072;28;20077;-73
2021/01/31 00:27:31;;;;;;;8.10;6.20;;;5.00;99.90;;;;;;5027571;28;20030;-74
2021/01/31 00:29:57;;;;;;;11.30;6.47;;;5.00;99.90;;;;;;5027155;28;20032;-74
2021/01/31 00:32:29;;;;;;;9.18;7.05;;;4.80;99.90;;;;;;5012404;28;20033;-74
2021/01/31 00:34:56;;;;;;;8.05;5.85;;;4.90;99.90;;;;;;5011202;28;20022;-74
2021/01/31 00:37:23;;;;;;;9.35;6.60;;;4.90;99.90;;;;;;5012103;28;20486;-74
2021/01/31 00:39:50;;;;;;;6.22;4.85;;;5.00;99.90;;;;;;5026945;28;20037;-74
2021/01/31 00:42:19;;;;;;;9.23;6.60;;;5.00;99.90;;;;;;5011985;28;20026;-74
2021/01/31 00:44:49;;;;;;;9.50;6.45;;;5.00;99.90;;;;;;5011719;28;20104;-74
2021/01/31 00:47:15;;;;;;;8.95;7.18;;;5.00;99.90;;;;;;5010820;28;20515;-74
2021/01/31 00:49:45;;;;;;;9.20;8.20;;;5.00;99.90;;;;;;5010385;28;20057;-74
2021/01/31 00:52:11;;;;;;;8.23;7.10;;;5.00;99.90;;;;;;5012168;28;20037;-74
2021/01/31 00:54:37;;;;;;;7.78;6.43;;;5.00;99.90;;;;;;5012157;28;20030;-74
2021/01/31 00:57:04;;;;;;;13.98;9.75;;;5.00;99.90;;;;;;5011538;28;20030;-74
2021/01/31 00:59:30;;;;;;;13.45;9.05;;;4.80;99.90;;;;;;5011228;28;20113;-74
2021/01/31 01:01:56;;;;;;;10.60;7.50;;;4.70;99.90;;;;;;5011968;28;20467;-74
2021/01/31 01:04:22;;;;;;;12.35;7.82;;;4.70;99.90;;;;;;5012332;28;20029;-74
2021/01/31 01:06:48;;;;;;;10.45;7.65;;;4.90;99.90;;;;;;5011543;28;20022;-74
2021/01/31 01:09:14;;;;;;;8.25;7.35;;;4.90;99.90;;;;;;5011637;28;20040;-74
2021/01/31 01:11:40;;;;;;;10.55;8.02;;;4.90;99.90;;;;;;5011389;28;20045;-74
2021/01/31 01:14:06;;;;;;;10.63;7.88;;;4.80;99.90;;;;;;5010519;28;20018;-74
2021/01/31 01:16:33;;;;;;;7.85;6.80;;;4.70;99.90;;;;;;5011381;28;20527;-74
2021/01/31 01:18:58;;;;;;;8.13;6.22;;;4.60;99.90;;;;;;5011675;28;20014;-74
2021/01/31 01:21:25;;;;;;;8.52;6.90;;;4.60;99.90;;;;;;5011214;28;20029;-74
2021/01/31 01:23:50;;;;;;;7.47;5.65;;;4.70;99.90;;;;;;5011420;28;20018;-74
2021/01/31 01:26:16;;;;;;;7.68;6.68;;;4.60;99.90;;;;;;5009987;28;20351;-74
2021/01/31 01:28:42;;;;;;;7.43;6.40;;;4.70;99.90;;;;;;5011722;28;20060;-74
2021/01/31 01:31:08;;;;;;;8.57;6.65;;;4.60;99.90;;;;;;5010969;28;20489;-74
2021/01/31 01:33:33;;;;;;;7.05;6.07;;;4.60;99.90;;;;;;5011360;28;20022;-74
2021/01/31 01:35:59;;;;;;;7.57;6.50;;;4.60;99.90;;;;;;5011084;28;20381;-74
2021/01/31 01:38:25;;;;;;;7.20;6.47;;;4.50;99.90;;;;;;5011067;28;20033;-74
2021/01/31 01:40:55;;;;;;;6.65;5.95;;;4.40;99.90;;;;;;5026356;28;20025;-74
2021/01/31 01:43:21;;;;;;;8.65;7.13;;;4.40;99.90;;;;;;5009762;28;20544;-74
2021/01/31 01:46:19;;;;;;;8.20;7.00;;;4.40;99.90;;;;;;5009545;28;20088;-74
2021/01/31 01:48:50;;;;;;;8.05;6.35;;;4.50;99.90;;;;;;5006577;28;20056;-74
2021/01/31 01:51:34;;;;;;;7.45;6.28;;;4.30;99.90;;;;;;5011034;28;20477;-74
2021/01/31 01:54:01;;;;;;;7.65;6.22;;;4.30;99.90;;;;;;4993232;28;20026;-74
2021/01/31 01:56:40;;;;;;;9.30;7.07;;;4.30;99.90;;;;;;5010949;28;20033;-74
2021/01/31 01:59:09;;;;;;;7.35;6.32;;;4.30;99.90;;;;;;5010923;28;20014;-74
2021/01/31 02:01:37;;;;;;;7.90;6.85;;;4.20;99.90;;;;;;5010935;28;20022;-75
2021/01/31 02:04:03;;;;;;;9.55;7.32;;;4.20;99.90;;;;;;5009526;28;20022;-75
2021/01/31 02:06:30;;;;;;;9.63;7.50;;;4.10;99.90;;;;;;5009732;28;20022;-75
2021/01/31 02:08:58;;;;;;;10.10;7.18;;;4.10;99.90;;;;;;5025528;28;20113;-74
2021/01/31 02:11:26;;;;;;;8.77;7.57;;;4.30;99.90;;;;;;4993227;28;20398;-74
2021/01/31 02:13:57;;;;;;;8.48;6.90;;;4.20;99.90;;;;;;5009289;28;20090;-75
2021/01/31 02:16:38;;;;;;;8.93;7.13;;;4.20;99.90;;;;;;5010864;28;20022;-75
2021/01/31 02:19:31;;;;;;;7.88;6.25;;;4.10;99.90;;;;;;5010751;28;20022;-75
2021/01/31 02:22:15;;;;;;;9.80;6.55;;;4.20;99.90;;;;;;5026012;28;20018;-75
2021/01/31 02:25:02;;;;;;;6.72;5.97;;;4.20;99.90;;;;;;5010799;28;20026;-75
2021/01/31 02:27:42;;;;;;;7.18;5.75;;;4.40;99.90;;;;;;5009532;28;20033;-75
2021/01/31 02:30:34;;;;;;;9.25;5.60;;;4.50;99.90;;;;;;5010476;28;20033;-75
2021/01/31 02:33:19;;;;;;;6.03;5.03;;;4.60;99.90;;;;;;5002696;28;20512;-75
2021/01/31 02:35:47;;;;;;;5.35;4.68;;;4.40;99.90;;;;;;5010444;28;20534;-75
2021/01/31 02:38:26;;;;;;;5.57;4.22;;;4.50;99.90;;;;;;5010653;28;20097;-75
2021/01/31 02:41:05;;;;;;;9.02;4.95;;;4.40;99.90;;;;;;5010461;28;20022;-75
2021/01/31 02:43:34;;;;;;;6.03;5.25;;;4.00;99.90;;;;;;5010830;28;20026;-75
2021/01/31 02:46:08;;;;;;;4.70;4.13;;;3.90;99.90;;;;;;5009364;28;20026;-73
2021/01/31 02:48:42;;;;;;;5.80;4.90;;;3.80;99.90;;;;;;5011176;28;20022;-75
2021/01/31 02:51:15;;;;;;;4.30;3.78;;;3.80;99.90;;;;;;5011143;28;20029;-75
2021/01/31 02:53:53;;;;;;;4.97;4.10;;;3.90;99.90;;;;;;5011263;28;20474;-75
2021/01/31 02:56:43;;;;;;;5.90;4.93;;;3.80;99.90;;;;;;5010461;28;20101;-75
2021/01/31 02:59:22;;;;;;;4.75;4.22;;;3.90;99.90;;;;;;5003411;28;20213;-74
2021/01/31 03:01:56;;;;;;;5.68;5.10;;;3.90;99.90;;;;;;5012706;28;20377;-74
2021/01/31 03:04:34;;;;;;;6.53;5.80;;;3.90;99.90;;;;;;5012816;28;20544;-75
2021/01/31 03:07:23;;;;;;;6.70;5.70;;;3.50;99.90;;;;;;4996035;28;20121;-75
2021/01/31 03:10:00;;;;;;;8.00;6.18;;;3.50;99.90;;;;;;5028826;28;20393;-75
2021/01/31 03:12:53;;;;;;;7.50;6.40;;;3.50;99.90;;;;;;5014053;28;20010;-75
2021/01/31 03:15:25;;;;;;;8.80;7.15;;;3.50;99.90;;;;;;5002533;28;20026;-75
2021/01/31 03:18:00;;;;;;;9.95;7.65;;;3.50;99.90;;;;;;5028906;28;20018;-75
2021/01/31 03:20:34;;;;;;;7.80;6.93;;;3.50;99.90;;;;;;5028665;28;20037;-74
2021/01/31 03:23:08;;;;;;;9.52;7.30;;;3.60;99.90;;;;;;5013662;28;20477;-75
2021/01/31 03:25:38;;;;;;;9.50;7.85;;;3.50;99.90;;;;;;5013310;28;20018;-74
2021/01/31 03:28:05;;;;;;;8.88;7.38;;;3.50;99.90;;;;;;5013522;28;20107;-75
2021/01/31 03:30:30;;;;;;;9.32;7.78;;;3.40;99.90;;;;;;5013358;28;20022;-74
2021/01/31 03:33:07;;;;;;;8.18;5.70;;;3.40;99.90;;;;;;5028442;28;20041;-75
2021/01/31 03:35:46;;;;;;;10.05;8.20;;;3.40;99.90;;;;;;5013427;28;20245;-75
2021/01/31 03:38:40;;;;;;;9.55;7.57;;;3.50;99.90;;;;;;5011823;28;20018;-75
2021/01/31 03:41:13;;;;;;;10.55;6.45;;;3.50;99.90;;;;;;5010223;28;20173;-74
2021/01/31 03:43:39;;;;;;;9.07;7.53;;;3.30;99.90;;;;;;5013165;28;20389;-74
2021/01/31 03:46:14;;;;;;;10.88;8.05;;;3.20;99.90;;;;;;5012997;28;20037;-74
2021/01/31 03:48:45;;;;;;;8.82;7.30;;;3.20;99.90;;;;;;5027846;28;20040;-75
2021/01/31 03:51:12;;;;;;;8.95;7.30;;;3.30;99.90;;;;;;5013018;28;20022;-75
2021/01/31 03:53:38;;;;;;;11.00;8.57;;;3.30;99.90;;;;;;5012794;28;20116;-75
2021/01/31 03:56:05;;;;;;;11.70;9.38;;;3.30;99.90;;;;;;5012953;28;20105;-75
2021/01/31 03:58:32;;;;;;;12.25;9.98;;;3.20;99.90;;;;;;5012549;28;20030;-75
2021/01/31 04:01:01;;;;;;;11.75;8.95;;;3.20;99.90;;;;;;5012893;28;20119;-75
2021/01/31 04:03:34;;;;;;;11.10;8.40;;;3.30;99.90;;;;;;5012485;28;20030;-75
2021/01/31 04:06:10;;;;;;;14.95;9.70;;;3.10;99.90;;;;;;5011523;28;20083;-74
2021/01/31 04:08:36;;;;;;;10.38;8.35;;;3.20;99.90;;;;;;5027696;28;20050;-75
2021/01/31 04:11:03;;;;;;;10.82;8.18;;;3.20;99.90;;;;;;5011247;28;20543;-75
2021/01/31 04:13:33;;;;;;;8.80;7.20;;;3.20;99.90;;;;;;5012376;28;20046;-75
2021/01/31 04:16:02;;;;;;;9.73;8.27;;;3.30;99.90;;;;;;5011214;28;20470;-75
2021/01/31 04:18:27;;;;;;;10.32;7.93;;;3.20;99.90;;;;;;5012377;28;20474;-75
2021/01/31 04:20:53;;;;;;;9.30;8.18;;;3.20;99.90;;;;;;5012679;28;20033;-75
2021/01/31 04:23:20;;;;;;;9.18;7.45;;;3.20;99.90;;;;;;5012309;28;20026;-75
2021/01/31 04:25:47;;;;;;;9.90;7.40;;;3.00;99.90;;;;;;5012644;28;20030;-74
2021/01/31 04:28:17;;;;;;;9.02;7.45;;;3.00;99.90;;;;;;5011240;28;20026;-75
2021/01/31 04:30:45;;;;;;;9.50;7.55;;;3.10;99.90;;;;;;5012661;28;20398;-75
2021/01/31 04:33:12;;;;;;;11.13;8.82;;;3.00;99.90;;;;;;5012902;28;20045;-75
2021/01/31 04:35:38;;;;;;;11.40;9.25;;;3.00;99.90;;;;;;5012819;28;20095;-75
2021/01/31 04:38:05;;;;;;;12.27;9.52;;;3.10;99.90;;;;;;5012608;28;20030;-75
2021/01/31 04:40:32;;;;;;;12.65;9.07;;;3.10;99.90;;;;;;5011999;28;20025;-75
2021/01/31 04:42:58;;;;;;;14.55;9.52;;;3.10;99.90;;;;;;5012168;28;20437;-75
2021/01/31 04:45:24;;;;;;;11.23;8.70;;;3.10;99.90;;;;;;5011857;28;20022;-74
2021/01/31 04:48:08;;;;;;;10.50;6.70;;;3.10;99.90;;;;;;5011020;28;20108;-75
2021/01/31 04:50:37;;;;;;;10.48;7.53;;;3.00;99.90;;;;;;5026993;28;20125;-75
2021/01/31 04:53:10;;;;;;;14.35;10.52;;;3.00;99.90;;;;;;5010952;28;20552;-74
2021/01/31 04:56:17;;;;;;;14.98;9.43;;;3.10;99.90;;;;;;5011693;28;20022;-75
2021/01/31 04:58:42;;;;;;;12.82;9.85;;;3.00;99.90;;;;;;5010738;28;20029;-75
2021/01/31 05:01:29;;;;;;;11.05;8.35;;;3.00;99.90;;;;;;5011537;28;20032;-74
2021/01/31 05:04:06;;;;;;;12.63;9.60;;;2.80;99.90;;;;;;5011838;28;20026;-75
2021/01/31 05:06:43;;;;;;;10.52;8.75;;;2.90;99.90;;;;;;5011509;28;20050;-75
2021/01/31 05:09:20;;;;;;;12.10;8.57;;;2.90;99.90;;;;;;5050134;23;20036;-77
2021/01/31 05:11:45;;;;;;;10.40;8.75;;;3.00;99.90;;;;;;5082120;28;20028;-76
2021/01/31 05:14:33;;;;;;;12.75;9.30;;;3.00;99.90;;;;;;5091133;28;20024;-76
2021/01/31 05:16:58;;;;;;;10.38;9.20;;;3.00;99.90;;;;;;5091032;28;20028;-76
2021/01/31 05:19:30;;;;;;;11.32;8.35;;;2.90;99.90;;;;;;5090956;28;20077;-76
2021/01/31 05:21:57;;;;;;;9.27;7.82;;;2.70;99.90;;;;;;5090973;28;20028;-76
2021/01/31 05:24:25;;;;;;;13.10;9.68;;;2.50;99.90;;;;;;5073003;28;20032;-74
2021/01/31 05:27:04;;;;;;;13.77;9.77;;;2.50;99.90;;;;;;5090785;28;20035;-75
2021/01/31 05:29:39;;;;;;;11.65;9.18;;;2.70;99.90;;;;;;5090944;28;20051;-75
2021/01/31 05:32:11;;;;;;;12.60;8.75;;;2.70;99.90;;;;;;5055959;28;20020;-75
2021/01/31 05:34:44;;;;;;;13.07;8.85;;;2.70;99.90;;;;;;5090948;28;20056;-75
2021/01/31 05:37:11;;;;;;;13.18;9.18;;;2.60;99.90;;;;;;5090782;28;20065;-75
2021/01/31 05:39:56;;;;;;;11.05;8.00;;;2.80;99.90;;;;;;5090777;28;20028;-75
2021/01/31 05:42:29;;;;;;;12.38;8.90;;;2.80;99.90;;;;;;5072226;28;20020;-75
2021/01/31 05:45:01;;;;;;;11.20;8.68;;;2.90;99.90;;;;;;5090720;28;20024;-75
2021/01/31 05:47:35;;;;;;;9.70;7.63;;;2.70;99.90;;;;;;5091068;28;20028;-75
2021/01/31 05:50:19;;;;;;;10.30;8.95;;;2.90;99.90;;;;;;5090710;28;20031;-75
2021/01/31 05:52:45;;;;;;;10.02;7.35;;;2.80;99.90;;;;;;5090625;28;20024;-75
2021/01/31 05:55:32;;;;;;;11.07;8.18;;;2.90;99.90;;;;;;5072508;28;20020;-75
2021/01/31 05:58:23;;;;;;;11.45;8.40;;;2.80;99.90;;;;;;5090587;28;20045;-75
2021/01/31 06:01:07;;;;;;;11.10;8.80;;;2.80;99.90;;;;;;5090668;28;20433;-75
2021/01/31 06:03:32;;;;;;;11.35;7.82;;;2.80;99.90;;;;;;5072785;28;20035;-75
2021/01/31 06:06:18;;;;;;;9.45;7.45;;;2.70;99.90;;;;;;5090794;28;20387;-76
2021/01/31 06:08:47;;;;;;;9.93;7.57;;;2.70;99.90;;;;;;5079784;28;20078;-76
2021/01/31 06:11:30;;;;;;;13.32;9.02;;;2.60;99.90;;;;;;5091015;28;20032;-76
2021/01/31 06:14:28;;;;;;;9.07;6.60;;;2.40;99.90;;;;;;5090772;28;20016;-75
2021/01/31 06:17:24;;;;;;;12.18;8.55;;;2.40;99.90;;;;;;5072489;28;20052;-76
2021/01/31 06:20:02;;;;;;;12.38;8.18;;;2.50;99.90;;;;;;5071365;28;20035;-75
2021/01/31 06:22:45;;;;;;;13.20;9.25;;;2.50;99.90;;;;;;5072346;28;20035;-75
2021/01/31 06:25:16;;;;;;;13.50;9.52;;;2.40;99.90;;;;;;5072288;28;20030;-75
2021/01/31 06:27:42;;;;;;;13.93;9.00;;;2.50;99.90;;;;;;5090316;28;20471;-75
2021/01/31 06:30:27;;;;;;;8.75;6.90;;;2.60;99.90;;;;;;5090178;28;20146;-75
2021/01/31 06:32:53;;;;;;;11.63;8.10;;;2.50;99.90;;;;;;5092817;28;20103;-75
2021/01/31 06:35:24;;;;;;;10.27;8.00;;;2.30;99.90;;;;;;5075927;28;20059;-75
2021/01/31 06:38:01;;;;;;;10.10;7.43;;;2.40;99.90;;;;;;5076114;28;20031;-76
2021/01/31 06:40:55;;;;;;;11.85;8.20;;;2.40;99.90;;;;;;5094056;28;20024;-76
2021/01/31 06:43:47;;;;;;;12.10;7.55;;;2.30;99.90;;;;;;5093925;28;20535;-75
2021/01/31 06:46:28;;;;;;;9.98;7.47;;;2.20;99.90;;;;;;5094020;28;20020;-76
2021/01/31 06:49:16;;;;;;;10.43;7.35;;;2.20;99.90;;;;;;5093863;28;20038;-75
2021/01/31 06:51:57;;;;;;;9.30;7.28;;;2.20;99.90;;;;;;5094099;28;20364;-75
2021/01/31 06:54:46;;;;;;;12.35;7.30;;;2.10;99.90;;;;;;5093558;28;20483;-75
2021/01/31 06:57:39;;;;;;;10.20;7.28;;;2.00;99.90;;;;;;5093952;28;20077;-75
2021/01/31 07:00:30;;;;;;;12.48;8.20;;;2.20;99.90;;;;;;5093590;28;20024;-75
2021/01/31 07:03:14;;;;;;;7.40;5.32;;;2.00;99.90;;;;;;5093709;28;20043;-74
2021/01/31 07:06:24;;;;;;;12.02;7.60;;;1.90;99.90;;;;;;5075353;28;20395;-75
2021/01/31 07:09:11;;;;;;;11.35;7.30;;;2.00;99.90;;;;;;5043367;28;20040;-75
2021/01/31 07:11:43;;;;;;;10.48;7.70;;;2.30;99.90;;;;;;5093444;28;20099;-75
2021/01/31 07:14:33;;;;;;;14.00;8.88;;;2.30;99.90;;;;;;5093483;28;20428;-75
2021/01/31 07:17:24;;;;;;;12.85;9.13;;;2.10;99.90;;;;;;5093575;28;20370;-75
2021/01/31 07:19:59;;;;;;;12.88;7.60;;;2.10;99.90;;;;;;5093306;28;20268;-75
2021/01/31 07:22:30;;;;;;;17.05;8.70;;;2.00;99.90;;;;;;5075355;28;20059;-75
2021/01/31 07:25:04;;;;;;;12.57;8.93;;;2.20;99.90;;;;;;5093075;28;20034;-74
2021/01/31 07:27:38;;;;;;;12.48;7.93;;;2.20;99.90;;;;;;5093291;28;20110;-75
2021/01/31 07:30:28;;;;;;;12.50;8.65;;;2.40;99.90;;;;;;5075076;28;20517;-75
2021/01/31 07:33:08;;;;;;;14.48;8.98;;;2.50;99.90;;;;;;5093335;28;20351;-75
2021/01/31 07:35:45;;;;;;;13.98;9.27;;;2.20;99.90;;;;;;5092886;28;20380;-74
2021/01/31 07:38:20;;;;;;;20.20;11.02;;;2.20;99.90;;;;;;5058148;28;20016;-75
2021/01/31 07:40:51;;;;;;;16.80;11.38;;;2.20;99.90;;;;;;5092836;28;20035;-75
2021/01/31 07:43:18;;;;;;;14.85;9.65;;;2.20;99.90;;;;;;5092559;28;20020;-74
2021/01/31 07:45:44;;;;;;;13.43;9.20;;;2.20;99.90;;;;;;5057941;28;20036;-75
2021/01/31 07:48:28;;;;;;;12.35;8.57;;;2.20;99.90;;;;;;5072569;28;20059;-75
2021/01/31 07:50:55;;;;;;;12.43;8.38;;;2.10;99.90;;;;;;5080563;28;20024;-74
2021/01/31 07:53:27;;;;;;;14.38;8.32;;;2.20;99.90;;;;;;5071109;28;20028;-75
2021/01/31 07:55:54;;;;;;;11.30;7.90;;;2.30;99.90;;;;;;5071381;28;20020;-75
2021/01/31 07:58:25;;;;;;;13.48;8.88;;;2.10;99.90;;;;;;5074393;28;20521;-75
2021/01/31 08:00:53;;;;;;;14.98;9.05;;;2.10;99.90;;;;;;5092910;28;20502;-75
2021/01/31 08:03:40;;;;;;;12.88;8.80;;;2.30;99.90;;;;;;5092857;28;20024;-75
2021/01/31 08:06:08;;;;;;;16.20;9.00;;;2.20;99.90;;;;;;5071468;28;20074;-75
2021/01/31 08:08:42;;;;;;;12.57;8.88;;;2.30;99.90;;;;;;5071936;28;20032;-75
2021/01/31 08:11:31;;;;;;;14.95;9.52;;;2.40;99.90;;;;;;5072274;28;20029;-75
2021/01/31 08:13:57;;;;;;;15.13;9.25;;;2.40;99.90;;;;;;5071568;28;20017;-74
2021/01/31 08:16:47;;;;;;;17.50;8.90;;;2.60;99.90;;;;;;5072369;28;20092;-74
2021/01/31 08:19:18;;;;;;;19.00;10.80;;;2.50;99.90;;;;;;5053106;28;20077;-74
2021/01/31 08:21:59;;;;;;;14.00;9.90;;;2.60;99.90;;;;;;5050964;28;20025;-74
2021/01/31 08:24:59;;;;;;;18.10;11.35;;;2.30;99.90;;;;;;5050160;28;20546;-74
2021/01/31 08:27:42;;;;;;;17.98;10.70;;;2.10;99.90;;;;;;5051919;28;20029;-75
2021/01/31 08:30:34;;;;;;;19.80;11.93;;;2.10;99.90;;;;;;5050175;28;20029;-75
2021/01/31 08:33:00;;;;;;;20.42;13.10;;;2.20;99.90;;;;;;5051894;28;20380;-76
2021/01/31 08:35:38;;;;;;;21.17;13.10;;;2.30;99.90;;;;;;5056949;28;20017;-73
2021/01/31 08:38:16;;;;;;;16.65;11.10;;;2.10;99.90;;;;;;5053857;28;20055;-75
2021/01/31 08:41:06;;;;;;;21.42;12.55;;;2.20;99.90;;;;;;5050039;28;20459;-75
2021/01/31 08:43:53;;;;;;;17.15;11.60;;;2.00;99.90;;;;;;5053718;28;20093;-74
2021/01/31 08:46:33;;;;;;;21.67;12.75;;;1.80;99.90;;;;;;5071213;28;20024;-74
2021/01/31 08:49:11;;;;;;;24.50;15.38;;;2.00;99.90;;;;;;5071403;28;20032;-75
2021/01/31 08:51:43;;;;;;;31.60;16.83;;;1.90;99.90;;;;;;5035120;28;20021;-74
2021/01/31 08:54:16;;;;;;;21.52;13.40;;;2.00;99.90;;;;;;5070830;28;20025;-74
2021/01/31 08:56:43;;;;;;;24.02;14.43;;;1.90;99.90;;;;;;5070903;28;20434;-74
2021/01/31 08:59:37;;;;;;;18.83;11.80;;;2.00;99.90;;;;;;5053289;28;20025;-74
2021/01/31 09:02:16;;;;;;;16.77;11.35;;;2.20;99.90;;;;;;5040694;28;20066;-75
2021/01/31 09:05:13;;;;;;;19.23;11.95;;;2.20;99.90;;;;;;5036632;28;20025;-75
2021/01/31 09:07:44;;;;;;;21.63;12.32;;;2.30;99.90;;;;;;5071014;28;20035;-75
2021/01/31 09:10:38;;;;;;;19.50;12.68;;;2.50;99.90;;;;;;5070314;28;20123;-75
2021/01/31 09:13:25;;;;;;;20.05;12.98;;;2.70;99.90;;;;;;5070674;28;20027;-75
2021/01/31 09:15:51;;;;;;;20.55;13.25;;;2.80;99.90;;;;;;5053032;28;20021;-75
2021/01/31 09:18:23;;;;;;;21.98;14.43;;;2.60;99.90;;;;;;5070677;28;20495;-75
2021/01/31 09:20:49;;;;;;;20.00;14.07;;;2.60;99.90;;;;;;5070802;28;20040;-75
2021/01/31 09:23:33;;;;;;;17.25;10.77;;;2.50;99.90;;;;;;5052631;28;20028;-75
2021/01/31 09:26:00;;;;;;;20.88;13.05;;;2.70;99.90;;;;;;5052837;28;20021;-75
2021/01/31 09:28:26;;;;;;;29.55;16.30;;;2.70;99.90;;;;;;5070524;28;20051;-74
2021/01/31 09:31:01;;;;;;;37.30;19.88;;;2.60;99.90;;;;;;5052774;28;20028;-75
2021/01/31 09:33:38;;;;;;;27.38;16.77;;;2.50;99.90;;;;;;5069886;28;20016;-75
2021/01/31 09:36:28;;;;;;;23.98;15.18;;;2.70;99.90;;;;;;5070554;28;20016;-75
2021/01/31 09:38:56;;;;;;;19.35;12.48;;;2.70;99.90;;;;;;5052245;28;20123;-75
2021/01/31 09:41:24;;;;;;;35.17;18.23;;;2.50;99.90;;;;;;5052513;28;20021;-75
2021/01/31 09:43:57;;;;;;;30.48;17.75;;;2.20;99.90;;;;;;5052170;28;20311;-75
2021/01/31 09:46:25;;;;;;;30.52;18.23;;;2.10;99.90;;;;;;5052523;28;20028;-76
2021/01/31 09:49:05;;;;;;;24.27;16.52;;;2.10;99.90;;;;;;5070592;28;20025;-75
2021/01/31 09:51:32;;;;;;;32.10;20.00;;;2.20;99.90;;;;;;5036288;28;20020;-75
2021/01/31 09:54:22;;;;;;;31.63;20.27;;;2.20;99.90;;;;;;5054557;28;20033;-75
2021/01/31 09:56:53;;;;;;;38.15;20.85;;;2.30;99.90;;;;;;5042594;28;20383;-74
2021/01/31 09:59:18;;;;;;;25.25;15.60;;;2.50;99.90;;;;;;5033502;28;20032;-74
2021/01/31 10:01:44;;;;;;;38.35;19.80;;;2.60;99.90;;;;;;5033008;28;20025;-74
2021/01/31 10:04:18;;;;;;;28.27;18.45;;;2.70;99.90;;;;;;5032692;28;20043;-74
2021/01/31 10:06:46;;;;;;;36.92;23.30;;;2.60;99.90;;;;;;5052508;28;20056;-74
2021/01/31 10:09:13;;;;;;;37.20;20.88;;;2.30;99.90;;;;;;5056184;28;20059;-75
2021/01/31 10:11:47;;;;;;;32.22;19.90;;;2.30;99.90;;;;;;5060098;28;20032;-75
2021/01/31 10:14:45;;;;;;;37.47;20.85;;;2.40;99.90;;;;;;5036553;28;20041;-74
2021/01/31 10:17:16;;;;;;;35.88;21.13;;;2.50;99.90;;;;;;5053829;28;20480;-75
2021/01/31 10:19:42;;;;;;;34.72;21.98;;;2.60;99.90;;;;;;5054455;28;20029;-74
2021/01/31 10:22:24;;;;;;;37.35;21.63;;;2.50;99.90;;;;;;5053962;28;20047;-75
2021/01/31 10:24:50;;;;;;;;;;;2.70;99.90;;;;;;5036794;28;20082;-75
2021/01/31 10:27:33;;;;;;;32.78;19.70;;;2.60;99.90;;;;;;5036192;28;20003;-75
2021/01/31 10:30:23;;;;;;;27.08;16.20;;;2.60;99.90;;;;;;5054306;28;20029;-75
2021/01/31 10:32:50;;;;;;;30.83;17.92;;;2.30;99.90;;;;;;5035863;28;20021;-75
2021/01/31 10:35:23;;;;;;;37.88;23.15;;;2.00;99.90;;;;;;5053911;28;20492;-75
2021/01/31 10:37:49;;;;;;;36.97;22.02;;;2.10;99.90;;;;;;5060653;28;20024;-74
2021/01/31 10:40:15;;;;;;;35.78;21.90;;;2.10;99.90;;;;;;5055840;28;20047;-74
2021/01/31 10:42:41;;;;;;;34.30;20.90;;;2.20;99.90;;;;;;5072952;28;20032;-74
2021/01/31 10:45:17;;;;;;;36.63;22.10;;;2.40;99.90;;;;;;5053859;28;20392;-74
2021/01/31 10:47:45;;;;;;;26.40;15.70;;;2.60;99.90;;;;;;5053631;28;20025;-73
2021/01/31 10:50:13;;;;;;;36.15;21.98;;;2.60;99.90;;;;;;5035999;28;20029;-74
2021/01/31 10:52:40;;;;;;;26.65;16.05;;;2.60;99.90;;;;;;5019253;28;20076;-74
2021/01/31 10:55:07;;;;;;;34.17;20.17;;;2.30;99.90;;;;;;5053251;28;20108;-74
2021/01/31 10:57:32;;;;;;;34.17;20.42;;;2.20;99.90;;;;;;5035704;28;20403;-74
2021/01/31 10:59:58;;;;;;;33.05;20.23;;;2.30;99.90;;;;;;5053526;28;20021;-75
2021/01/31 11:02:24;;;;;;;32.00;19.60;;;2.40;99.90;;;;;;5053408;28;20029;-75
2021/01/31 11:04:49;;;;;;;35.63;21.20;;;2.40;99.90;;;;;;5035283;28;20388;-75
2021/01/31 11:07:15;;;;;;;28.73;16.45;;;2.50;99.90;;;;;;5053166;28;20037;-75
2021/01/31 11:09:41;;;;;;;38.08;22.33;;;2.50;99.90;;;;;;5161154;22;20319;-76
2021/01/31 11:12:07;;;;;;;37.20;22.10;;;2.50;99.90;;;;;;5075781;28;20482;-73
2021/01/31 11:14:32;;;;;;;41.20;22.75;;;2.50;99.90;;;;;;5093584;28;20024;-73
2021/01/31 11:17:00;;;;;;;39.75;23.50;;;2.60;99.90;;;;;;5075452;28;20020;-74
2021/01/31 11:19:25;;;;;;;39.20;24.52;;;2.60;99.90;;;;;;5075294;28;20016;-74
2021/01/31 11:21:51;;;;;;;36.65;22.23;;;2.60;99.90;;;;;;5058582;28;20031;-74
2021/01/31 11:24:17;;;;;;;41.53;23.50;;;2.70;99.90;;;;;;5093665;28;20054;-73
2021/01/31 11:26:43;;;;;;;29.75;18.45;;;2.60;99.90;;;;;;5093398;28;20028;-74
2021/01/31 11:29:08;;;;;;;44.25;25.90;;;2.60;99.90;;;;;;5075736;28;20274;-74
2021/01/31 11:31:34;;;;;;;43.83;26.70;;;2.70;99.90;;;;;;5075362;28;20089;-73
2021/01/31 11:34:00;;;;;;;44.45;26.48;;;2.80;99.90;;;;;;5058657;28;20016;-74
2021/01/31 11:36:26;;;;;;;46.05;25.10;;;2.90;99.90;;;;;;5075149;28;20024;-76
2021/01/31 11:38:52;;;;;;;41.55;24.35;;;3.00;99.90;;;;;;5075419;28;20024;-73
2021/01/31 11:41:18;;;;;;;47.95;25.45;;;2.70;99.90;;;;;;5093402;28;20034;-73
2021/01/31 11:43:44;;;;;;;42.95;24.23;;;2.60;99.90;;;;;;5058396;28;20390;-73
2021/01/31 11:46:10;;;;;;;41.13;22.67;;;2.60;99.90;;;;;;5054964;28;20024;-73
2021/01/31 11:48:36;;;;;;;53.58;24.95;;;2.70;99.90;;;;;;5054794;28;20103;-73
2021/01/31 11:51:01;;;;;;;45.42;23.38;;;2.50;99.90;;;;;;5054892;28;20475;-73
2021/01/31 11:53:27;;;;;;;44.47;24.27;;;2.40;99.90;;;;;;5050798;28;20118;-73
2021/01/31 11:55:53;;;;;;;53.55;26.92;;;2.50;99.90;;;;;;5093114;28;20016;-74
2021/01/31 11:58:19;;;;;;;38.47;21.48;;;2.40;99.90;;;;;;5092802;28;20073;-73
2021/01/31 12:00:44;;;;;;;49.75;28.27;;;2.30;99.90;;;;;;5074836;28;20024;-74
2021/01/31 12:03:12;;;;;;;44.28;27.58;;;2.20;99.90;;;;;;5092150;28;20052;-74
2021/01/31 12:05:38;;;;;;;49.15;28.77;;;2.30;99.90;;;;;;5074618;28;20463;-74
2021/01/31 12:08:04;;;;;;;45.17;27.38;;;2.50;99.90;;;;;;5074450;28;20055;-74
2021/01/31 12:10:32;;;;;;;39.53;25.23;;;2.50;99.90;;;;;;5074441;28;20556;-74
2021/01/31 12:12:58;;;;;;;40.90;26.55;;;2.50;99.90;;;;;;5092424;28;20016;-73
2021/01/31 12:15:24;;;;;;;41.40;25.95;;;2.50;99.90;;;;;;5074382;28;20487;-74
2021/01/31 12:17:50;;;;;;;39.83;24.42;;;2.60;99.90;;;;;;5092418;28;20024;-73
2021/01/31 12:20:17;;;;;;;54.70;25.73;;;2.70;99.90;;;;;;5074196;28;20419;-74
2021/01/31 12:22:43;;;;;;;42.95;26.10;;;2.70;99.90;;;;;;5092540;28;20057;-73
2021/01/31 12:25:13;;;;;;;75.80;26.83;;;2.80;99.90;;;;;;5074087;28;20059;-72
2021/01/31 12:27:40;;;;;;;53.28;25.80;;;2.90;99.90;;;;;;5057598;28;20020;-73
2021/01/31 12:30:07;;;;;;;42.03;25.25;;;2.80;99.90;;;;;;5090951;28;20145;-73
2021/01/31 12:32:34;;;;;;;43.13;24.90;;;2.80;99.90;;;;;;5092251;28;20107;-74
2021/01/31 12:35:00;;;;;;;41.45;23.55;;;2.70;99.90;;;;;;5057070;28;20447;-73
2021/01/31 12:37:25;;;;;;;40.58;24.63;;;2.70;99.90;;;;;;5092343;28;20024;-73
2021/01/31 12:39:54;;;;;;;40.75;26.17;;;2.70;99.90;;;;;;5091931;28;20024;-74
2021/01/31 12:42:20;;;;;;;42.20;25.25;;;2.70;99.90;;;;;;5062208;28;20024;-73
2021/01/31 12:44:45;;;;;;;39.40;24.30;;;2.50;99.90;;;;;;5053611;28;20440;-74
2021/01/31 12:47:12;;;;;;;39.63;23.23;;;2.70;99.90;;;;;;5053764;28;20067;-74
2021/01/31 12:49:38;;;;;;;48.53;25.38;;;2.80;99.90;;;;;;5071277;28;22336;-74
2021/01/31 12:52:04;;;;;;;43.50;25.92;;;2.70;99.90;;;;;;5037397;28;20048;-73
2021/01/31 12:54:30;;;;;;;43.63;26.88;;;2.60;99.90;;;;;;5053581;28;20498;-73
2021/01/31 12:56:56;;;;;;;44.83;27.48;;;2.60;99.90;;;;;;5071715;28;20024;-73
2021/01/31 12:59:22;;;;;;;41.40;26.40;;;2.50;99.90;;;;;;5053672;28;20021;-74
2021/01/31 13:01:48;;;;;;;37.00;23.60;;;2.60;99.90;;;;;;5052816;28;20059;-73
2021/01/31 13:04:14;;;;;;;42.03;24.55;;;2.70;99.90;;;;;;5070950;28;20021;-73
2021/01/31 13:06:39;;;;;;;39.53;23.98;;;2.60;99.90;;;;;;5052574;28;20028;-73
2021/01/31 13:09:05;;;;;;;42.05;25.48;;;2.70;99.90;;;;;;5036264;28;20025;-74
2021/01/31 13:11:31;;;;;;;38.55;24.27;;;2.70;99.90;;;;;;5067558;28;20036;-74
2021/01/31 13:13:57;;;;;;;44.78;25.65;;;2.80;99.90;;;;;;5090803;28;20069;-74